CCS4 weather

Chipman Airport
Chipman, New Brunswick, Canada

Public forecast

Using degrees Celsius for public forecast. Weather courtesy of forecast.io.

METAR (pilot weather report)

Closest report is CFB Gagetown Heliport, 29.0 nm (53.7 km) SW. Retrieved 2019/08/24 19:00 UTC (41 minutes ago):

CYCX 241900Z AUTO 04005KT 010V100 9SM OVC038 18/11 A3021 RMK SLP230

TAF (pilot weather forecast)

Forecast is more than 12 hours old.

Closest forecast is CFB Gagetown Heliport, 29.0 nm (53.7 km) SW. Retrieved 2019/08/23 06:33 UTC (2 days ago):

TAF TAF CYCX 230530Z 2306/2318 22005KT P6SM BKN050 OVC140 BECMG 2307/2309 FEW050 FEW150 BECMG 2312/2314 27010KT RMK NXT FCST BY 231200Z